Time;durP1;ratioP1;P1;durP2;ratioP2;P2;SDS_P1;SDS_P2;PMS_P1;PMS_P2;Temp;Humidity;BMP_temperature;BMP_pressure;BME280_temperature;BME280_humidity;BME280_pressure;Samples;Min_cycle;Max_cycle;Signal;HPM_P1;HPM_P2
2023/12/16 00:02:55;;;;;;;11.60;6.80;;;;;;;;;;104313;1288;545341;-70
2023/12/16 00:06:32;;;;;;;11.80;6.30;;;;;;;;;;103740;1294;544901;-71
2023/12/16 00:10:10;;;;;;;11.70;6.10;;;;;;;;;;103735;1291;545052;-71
2023/12/16 00:13:47;;;;;;;12.30;6.20;;;;;;;;;;103845;1291;545529;-71
2023/12/16 00:17:25;;;;;;;14.90;7.40;;;;;;;;;;103714;1294;545042;-75
2023/12/16 00:21:02;;;;;;;12.80;6.70;;;;;;;;;;103733;1292;544922;-72
2023/12/16 00:24:41;;;;;;;12.20;6.80;;;;;;;;;;103846;1292;544815;-71
2023/12/16 00:28:17;;;;;;;15.50;7.00;;;;;;;;;;103834;1295;545247;-72
2023/12/16 00:31:54;;;;;;;16.30;8.10;;;;;;;;;;103908;1292;545176;-74
2023/12/16 00:35:51;;;;;;;15.80;8.30;;;;;;;;;;103697;1295;545595;-73
2023/12/16 00:39:09;;;;;;;15.50;8.30;;;;;;;;;;103808;1290;545061;-71
2023/12/16 00:42:47;;;;;;;15.70;8.70;;;;;;;;;;103813;1295;545082;-72
2023/12/16 00:46:20;;;;;;;14.60;9.40;;;;;;;;;;103943;1289;544866;-72
2023/12/16 00:50:01;;;;;;;16.10;9.20;;;;;;;;;;104245;1288;545175;-71
2023/12/16 00:53:39;;;;;;;17.40;8.60;;;;;;;;;;103669;1292;545517;-72
2023/12/16 00:57:12;;;;;;;20.20;8.80;;;;;;;;;;103930;1291;546141;-80
2023/12/16 01:00:54;;;;;;;17.30;9.50;;;;;;;;;;104067;1290;545352;-71
2023/12/16 01:04:31;;;;;;;16.70;10.10;;;;;;;;;;103848;1292;546378;-71
2023/12/16 01:08:09;;;;;;;18.10;9.70;;;;;;;;;;103747;1293;545038;-71
2023/12/16 01:11:46;;;;;;;16.70;9.00;;;;;;;;;;103768;1291;545155;-71
2023/12/16 01:15:24;;;;;;;16.50;8.60;;;;;;;;;;103913;1292;544940;-71
2023/12/16 01:19:01;;;;;;;17.20;9.20;;;;;;;;;;103695;1291;545249;-74
2023/12/16 01:22:39;;;;;;;18.40;9.50;;;;;;;;;;103786;1298;545582;-71
2023/12/16 01:26:19;;;;;;;16.10;9.10;;;;;;;;;;103770;1292;544979;-72
2023/12/16 01:29:54;;;;;;;16.70;9.20;;;;;;;;;;103911;1288;545379;-71
2023/12/16 01:33:31;;;;;;;18.10;10.60;;;;;;;;;;103811;1289;545184;-72
2023/12/16 01:37:09;;;;;;;18.30;9.80;;;;;;;;;;103666;1294;545238;-72
2023/12/16 01:40:42;;;;;;;18.90;10.10;;;;;;;;;;103942;1302;545543;-71
2023/12/16 01:44:23;;;;;;;19.20;10.90;;;;;;;;;;103805;1292;544915;-72
2023/12/16 01:48:03;;;;;;;17.10;9.90;;;;;;;;;;103834;1290;545084;-71
2023/12/16 01:51:38;;;;;;;15.10;9.10;;;;;;;;;;103774;1305;544884;-71
2023/12/16 01:55:16;;;;;;;16.70;8.60;;;;;;;;;;103812;1289;544908;-72
2023/12/16 01:58:54;;;;;;;16.10;9.10;;;;;;;;;;103868;1292;544965;-72
2023/12/16 02:02:31;;;;;;;18.10;9.10;;;;;;;;;;103829;1291;544805;-78
2023/12/16 02:06:08;;;;;;;15.50;8.30;;;;;;;;;;103902;1291;544748;-70
2023/12/16 02:09:47;;;;;;;13.90;7.00;;;;;;;;;;103851;1294;545794;-77
2023/12/16 02:13:24;;;;;;;15.20;7.00;;;;;;;;;;103734;1292;545392;-71
2023/12/16 02:17:00;;;;;;;13.40;7.30;;;;;;;;;;103782;1292;544714;-72
2023/12/16 02:20:38;;;;;;;14.50;6.70;;;;;;;;;;103795;1294;545039;-71
2023/12/16 02:24:16;;;;;;;18.10;7.10;;;;;;;;;;103814;1291;545683;-70
2023/12/16 02:27:53;;;;;;;14.20;7.10;;;;;;;;;;103825;1293;544941;-72
2023/12/16 02:31:30;;;;;;;14.00;7.10;;;;;;;;;;103676;1295;544730;-71
2023/12/16 02:35:08;;;;;;;14.00;6.70;;;;;;;;;;103866;1291;545386;-72
2023/12/16 02:38:45;;;;;;;16.30;6.50;;;;;;;;;;103718;1289;545138;-70
2023/12/16 02:42:23;;;;;;;14.30;6.80;;;;;;;;;;103700;1296;544987;-77
2023/12/16 02:46:00;;;;;;;13.30;6.60;;;;;;;;;;103941;1289;544906;-72
2023/12/16 02:49:38;;;;;;;14.30;6.30;;;;;;;;;;104638;1288;545143;-72
2023/12/16 02:53:15;;;;;;;14.90;5.50;;;;;;;;;;103747;1292;545065;-76
2023/12/16 02:56:52;;;;;;;14.60;6.50;;;;;;;;;;103796;1289;545273;-79
2023/12/16 03:00:29;;;;;;;14.60;6.80;;;;;;;;;;103763;1291;544901;-80
2023/12/16 03:04:08;;;;;;;12.90;6.40;;;;;;;;;;103787;1289;546005;-69
2023/12/16 03:07:45;;;;;;;12.50;6.70;;;;;;;;;;103986;1290;544781;-72
2023/12/16 03:11:22;;;;;;;14.90;7.10;;;;;;;;;;103898;1288;546110;-77
2023/12/16 03:15:00;;;;;;;14.30;6.80;;;;;;;;;;103825;1289;546304;-73
2023/12/16 03:18:38;;;;;;;12.80;6.40;;;;;;;;;;103718;1298;545372;-72
2023/12/16 03:22:15;;;;;;;12.50;5.30;;;;;;;;;;103666;1291;545981;-71
2023/12/16 03:25:52;;;;;;;12.80;6.10;;;;;;;;;;103770;1289;544939;-81
2023/12/16 03:29:31;;;;;;;15.20;6.50;;;;;;;;;;104364;1289;545576;-72
2023/12/16 03:33:07;;;;;;;12.30;5.80;;;;;;;;;;103706;1289;544943;-79
2023/12/16 03:36:45;;;;;;;13.00;5.50;;;;;;;;;;103869;1289;544949;-72
2023/12/16 03:40:23;;;;;;;12.60;5.50;;;;;;;;;;103778;1291;544833;-72
2023/12/16 03:44:00;;;;;;;12.40;6.50;;;;;;;;;;103892;1288;545359;-72
2023/12/16 03:47:37;;;;;;;13.50;6.20;;;;;;;;;;103862;1289;544994;-71
2023/12/16 03:51:15;;;;;;;11.90;5.80;;;;;;;;;;103846;1297;545364;-72
2023/12/16 03:54:52;;;;;;;12.80;5.40;;;;;;;;;;103845;1292;545018;-72
2023/12/16 03:58:30;;;;;;;12.40;6.00;;;;;;;;;;103867;1295;544944;-71
2023/12/16 04:02:07;;;;;;;12.60;6.00;;;;;;;;;;104387;1283;544740;-74
2023/12/16 04:05:44;;;;;;;12.90;5.80;;;;;;;;;;103829;1291;544854;-74
2023/12/16 04:09:21;;;;;;;10.90;5.00;;;;;;;;;;103830;1292;545141;-71
2023/12/16 04:12:59;;;;;;;10.90;5.40;;;;;;;;;;103981;1289;544969;-76
2023/12/16 04:16:37;;;;;;;12.00;5.70;;;;;;;;;;103818;1289;544815;-72
2023/12/16 04:20:14;;;;;;;10.00;4.70;;;;;;;;;;103855;1291;545585;-73
2023/12/16 04:23:52;;;;;;;11.50;5.00;;;;;;;;;;103855;1289;546223;-73
2023/12/16 04:27:29;;;;;;;12.40;5.30;;;;;;;;;;103884;1295;545338;-72
2023/12/16 04:31:12;;;;;;;12.40;6.00;;;;;;;;;;103864;1289;545389;-72
2023/12/16 04:34:44;;;;;;;14.60;6.20;;;;;;;;;;104123;1289;545007;-72
2023/12/16 04:38:22;;;;;;;12.10;5.70;;;;;;;;;;103783;1303;545438;-71
2023/12/16 04:41:59;;;;;;;15.30;6.40;;;;;;;;;;104420;1285;545557;-71
2023/12/16 04:45:37;;;;;;;14.10;6.60;;;;;;;;;;103851;1289;545969;-73
2023/12/16 04:49:14;;;;;;;14.30;7.60;;;;;;;;;;103925;1292;546138;-73
2023/12/16 04:52:48;;;;;;;16.30;7.00;;;;;;;;;;103758;1295;544943;-73
2023/12/16 04:56:29;;;;;;;14.00;6.60;;;;;;;;;;103853;1295;544847;-72
2023/12/16 05:00:08;;;;;;;14.00;7.20;;;;;;;;;;103881;1288;545572;-71
2023/12/16 05:03:44;;;;;;;13.10;6.60;;;;;;;;;;103926;1289;545704;-71
2023/12/16 05:07:21;;;;;;;13.70;6.50;;;;;;;;;;104164;1288;545658;-72
2023/12/16 05:11:02;;;;;;;14.60;7.10;;;;;;;;;;103776;1292;544830;-71
2023/12/16 05:14:38;;;;;;;14.40;7.40;;;;;;;;;;103858;1289;546249;-71
2023/12/16 05:18:19;;;;;;;13.50;6.50;;;;;;;;;;103561;1295;545329;-72
2023/12/16 05:21:51;;;;;;;11.20;5.20;;;;;;;;;;104087;1286;545063;-71
2023/12/16 05:25:29;;;;;;;11.50;5.80;;;;;;;;;;103928;1289;545066;-71
2023/12/16 05:29:07;;;;;;;13.20;6.30;;;;;;;;;;104213;1287;544898;-72
2023/12/16 05:32:44;;;;;;;12.10;5.80;;;;;;;;;;103885;1292;545161;-72
2023/12/16 05:36:17;;;;;;;12.90;6.40;;;;;;;;;;103773;1292;544751;-72
2023/12/16 05:39:59;;;;;;;13.30;7.00;;;;;;;;;;104140;1284;544913;-79
2023/12/16 05:43:35;;;;;;;16.60;8.00;;;;;;;;;;103907;1289;545681;-70
2023/12/16 05:47:13;;;;;;;13.40;7.40;;;;;;;;;;104567;1283;545892;-76
2023/12/16 05:50:51;;;;;;;11.60;5.70;;;;;;;;;;103886;1289;544630;-78
2023/12/16 05:54:29;;;;;;;11.40;6.00;;;;;;;;;;103788;1292;544720;-72
2023/12/16 05:58:06;;;;;;;11.90;6.20;;;;;;;;;;103847;1303;545075;-79
2023/12/16 06:01:44;;;;;;;12.40;6.00;;;;;;;;;;103832;1289;545756;-76
2023/12/16 06:05:22;;;;;;;10.90;5.40;;;;;;;;;;103821;1292;545099;-75
2023/12/16 06:08:58;;;;;;;12.00;5.70;;;;;;;;;;103893;1295;544993;-73
2023/12/16 06:12:35;;;;;;;13.70;7.20;;;;;;;;;;103888;1290;545147;-72
2023/12/16 06:16:14;;;;;;;12.40;6.00;;;;;;;;;;103853;1289;545137;-71
2023/12/16 06:19:47;;;;;;;11.00;5.70;;;;;;;;;;103772;1292;545122;-79
2023/12/16 06:23:29;;;;;;;13.60;6.80;;;;;;;;;;103949;1288;544933;-70
2023/12/16 06:27:06;;;;;;;14.40;7.10;;;;;;;;;;103767;1295;544799;-72
2023/12/16 06:30:43;;;;;;;13.30;7.10;;;;;;;;;;103869;1292;545088;-72
2023/12/16 06:34:21;;;;;;;14.20;7.60;;;;;;;;;;103912;1291;544906;-72
2023/12/16 06:37:54;;;;;;;12.30;6.70;;;;;;;;;;103877;1302;545752;-82
2023/12/16 06:41:41;;;;;;;11.70;6.10;;;;;;;;;;103665;1291;545701;-72
2023/12/16 06:45:13;;;;;;;13.30;7.10;;;;;;;;;;104022;1288;544747;-71
2023/12/16 06:48:50;;;;;;;13.50;7.00;;;;;;;;;;103881;1289;545108;-73
2023/12/16 06:52:28;;;;;;;11.40;5.90;;;;;;;;;;103887;1288;545035;-78
2023/12/16 06:56:06;;;;;;;13.10;7.20;;;;;;;;;;103831;1289;544906;-72
2023/12/16 06:59:43;;;;;;;14.70;7.40;;;;;;;;;;103865;1295;544892;-71
2023/12/16 07:03:20;;;;;;;12.30;6.70;;;;;;;;;;103873;1289;544940;-71
2023/12/16 07:06:58;;;;;;;14.20;6.20;;;;;;;;;;103833;1292;545969;-79
2023/12/16 07:10:35;;;;;;;14.00;6.30;;;;;;;;;;104041;1288;545404;-72
2023/12/16 07:14:12;;;;;;;12.60;6.50;;;;;;;;;;104305;1285;545056;-72
2023/12/16 07:17:50;;;;;;;14.60;6.10;;;;;;;;;;103848;1295;545051;-71
2023/12/16 07:21:28;;;;;;;11.60;6.40;;;;;;;;;;103801;1292;544883;-75
2023/12/16 07:25:05;;;;;;;13.20;6.90;;;;;;;;;;104240;1285;544960;-78
2023/12/16 07:28:42;;;;;;;13.00;6.70;;;;;;;;;;103776;1290;545143;-74
2023/12/16 07:32:20;;;;;;;12.90;6.60;;;;;;;;;;103994;1289;544809;-71
2023/12/16 07:35:57;;;;;;;14.50;6.40;;;;;;;;;;104286;1285;545258;-72
2023/12/16 07:39:34;;;;;;;14.90;7.80;;;;;;;;;;103936;1291;545039;-76
2023/12/16 07:43:12;;;;;;;14.50;8.00;;;;;;;;;;103973;1289;544848;-75
2023/12/16 07:46:50;;;;;;;20.50;8.30;;;;;;;;;;103896;1292;545781;-76
2023/12/16 07:50:27;;;;;;;18.20;9.30;;;;;;;;;;103866;1296;544823;-80
2023/12/16 07:54:05;;;;;;;19.60;9.80;;;;;;;;;;103753;1291;544756;-77
2023/12/16 07:57:42;;;;;;;19.90;8.70;;;;;;;;;;103836;1302;545063;-72
2023/12/16 08:01:19;;;;;;;17.10;8.60;;;;;;;;;;103829;1289;545290;-74
2023/12/16 08:04:53;;;;;;;17.90;8.50;;;;;;;;;;104110;1289;545045;-77
2023/12/16 08:08:35;;;;;;;17.90;9.60;;;;;;;;;;104489;1288;545127;-80
2023/12/16 08:12:12;;;;;;;19.90;8.90;;;;;;;;;;103818;1292;545415;-72
2023/12/16 08:15:49;;;;;;;18.10;8.30;;;;;;;;;;104261;1286;545753;-76
2023/12/16 08:19:26;;;;;;;17.80;8.40;;;;;;;;;;103890;1292;544939;-76
2023/12/16 08:23:08;;;;;;;20.60;8.80;;;;;;;;;;103901;1295;544803;-80
2023/12/16 08:26:42;;;;;;;18.50;7.80;;;;;;;;;;103808;1296;544764;-72
2023/12/16 08:30:19;;;;;;;17.30;8.00;;;;;;;;;;103757;1289;545904;-71
2023/12/16 08:33:56;;;;;;;18.20;8.40;;;;;;;;;;103867;1295;545047;-72
2023/12/16 08:37:35;;;;;;;17.20;8.90;;;;;;;;;;103909;1295;545122;-77
2023/12/16 08:41:12;;;;;;;18.00;8.10;;;;;;;;;;103812;1292;544879;-71
2023/12/16 08:44:50;;;;;;;21.60;8.40;;;;;;;;;;103717;1292;545038;-74
2023/12/16 08:48:29;;;;;;;19.10;8.50;;;;;;;;;;103731;1288;547353;-71
2023/12/16 08:52:06;;;;;;;23.60;10.60;;;;;;;;;;103865;1289;546031;-72
2023/12/16 08:55:42;;;;;;;29.40;11.90;;;;;;;;;;103900;1294;545532;-78
2023/12/16 08:59:19;;;;;;;31.80;12.80;;;;;;;;;;104054;1289;546668;-71
2023/12/16 09:02:56;;;;;;;30.50;13.30;;;;;;;;;;104004;1289;545425;-72
2023/12/16 09:06:39;;;;;;;32.90;13.60;;;;;;;;;;104060;1292;544785;-72
2023/12/16 09:10:17;;;;;;;29.90;13.00;;;;;;;;;;103642;1295;545495;-72
2023/12/16 09:17:36;;;;;;;27.20;12.20;;;;;;;;;;103552;1292;545852;-72
2023/12/16 09:21:08;;;;;;;31.50;11.90;;;;;;;;;;104150;1286;544811;-76
2023/12/16 09:24:41;;;;;;;23.80;11.10;;;;;;;;;;104006;1292;544878;-72
2023/12/16 09:28:23;;;;;;;22.90;9.40;;;;;;;;;;103809;1289;545476;-71
2023/12/16 09:32:02;;;;;;;22.70;11.20;;;;;;;;;;103803;1292;545610;-72
2023/12/16 09:35:38;;;;;;;22.20;11.50;;;;;;;;;;103909;1293;545063;-74
2023/12/16 09:39:16;;;;;;;40.60;24.50;;;;;;;;;;103915;1289;544996;-72
2023/12/16 09:42:58;;;;;;;20.20;8.90;;;;;;;;;;103902;1295;545098;-72
2023/12/16 09:46:31;;;;;;;17.60;8.40;;;;;;;;;;104037;1290;544795;-72
2023/12/16 09:50:09;;;;;;;18.00;8.30;;;;;;;;;;103977;1289;544813;-74
2023/12/16 09:53:45;;;;;;;19.50;8.10;;;;;;;;;;103924;1289;544976;-76
2023/12/16 09:57:23;;;;;;;16.00;8.30;;;;;;;;;;103719;1289;545632;-77
2023/12/16 10:01:01;;;;;;;18.60;8.90;;;;;;;;;;104101;1292;544945;-80
2023/12/16 10:04:38;;;;;;;16.10;8.30;;;;;;;;;;104446;1283;545186;-74
2023/12/16 10:08:15;;;;;;;17.50;7.50;;;;;;;;;;103859;1290;545168;-72
2023/12/16 10:11:54;;;;;;;17.40;7.60;;;;;;;;;;103848;1294;545022;-71
2023/12/16 10:15:31;;;;;;;14.70;6.00;;;;;;;;;;103802;1291;544885;-71
2023/12/16 10:19:07;;;;;;;16.40;7.40;;;;;;;;;;103835;1289;544831;-77
2023/12/16 10:22:45;;;;;;;13.90;5.60;;;;;;;;;;104163;1288;545581;-78
2023/12/16 10:26:18;;;;;;;12.50;5.40;;;;;;;;;;104147;1289;545573;-81
2023/12/16 10:30:02;;;;;;;15.00;5.90;;;;;;;;;;103818;1291;545929;-74
2023/12/16 10:33:37;;;;;;;14.10;5.50;;;;;;;;;;104382;1285;546045;-75
2023/12/16 10:37:11;;;;;;;14.20;5.20;;;;;;;;;;104026;1289;544945;-81
2023/12/16 10:40:50;;;;;;;12.40;4.90;;;;;;;;;;103938;1292;545167;-78
2023/12/16 10:44:31;;;;;;;13.30;5.40;;;;;;;;;;104427;1283;545766;-72
2023/12/16 10:48:10;;;;;;;12.50;5.00;;;;;;;;;;103893;1289;545131;-71
2023/12/16 10:51:48;;;;;;;11.90;4.50;;;;;;;;;;103728;1291;544920;-72
2023/12/16 10:55:31;;;;;;;14.00;4.60;;;;;;;;;;104472;1283;545372;-78
2023/12/16 10:59:03;;;;;;;12.00;4.30;;;;;;;;;;103990;1289;545345;-72
2023/12/16 11:02:57;;;;;;;11.90;4.30;;;;;;;;;;103865;1289;544944;-71
2023/12/16 11:06:28;;;;;;;12.50;4.20;;;;;;;;;;103822;1288;544857;-73
2023/12/16 11:09:54;;;;;;;12.80;5.20;;;;;;;;;;103905;1291;544922;-71
2023/12/16 11:13:30;;;;;;;14.50;6.10;;;;;;;;;;103885;1295;544983;-73
2023/12/16 11:17:14;;;;;;;14.00;5.30;;;;;;;;;;104798;1289;545579;-73
2023/12/16 11:20:52;;;;;;;12.80;5.10;;;;;;;;;;103987;1291;545449;-72
2023/12/16 11:24:42;;;;;;;12.30;4.60;;;;;;;;;;103851;1291;545533;-77
2023/12/16 11:28:13;;;;;;;10.80;4.00;;;;;;;;;;103844;1292;546075;-71
2023/12/16 11:31:52;;;;;;;13.10;4.50;;;;;;;;;;103915;1292;545621;-71
2023/12/16 11:35:38;;;;;;;14.30;4.70;;;;;;;;;;103751;1291;545665;-79
2023/12/16 11:39:03;;;;;;;11.20;4.30;;;;;;;;;;104218;1289;545086;-74
2023/12/16 11:43:02;;;;;;;13.40;3.80;;;;;;;;;;103959;1295;545036;-75
2023/12/16 11:46:42;;;;;;;11.30;4.20;;;;;;;;;;104549;1295;545650;-72
2023/12/16 11:50:20;;;;;;;11.80;4.50;;;;;;;;;;104105;1290;544799;-74
2023/12/16 11:53:59;;;;;;;12.80;5.50;;;;;;;;;;103831;1289;544915;-73
2023/12/16 11:57:31;;;;;;;11.20;4.20;;;;;;;;;;104047;1292;544833;-72
2023/12/16 12:01:12;;;;;;;14.10;4.30;;;;;;;;;;104003;1289;545473;-71
2023/12/16 12:04:50;;;;;;;12.10;4.30;;;;;;;;;;104012;1290;546443;-71
2023/12/16 12:08:23;;;;;;;12.30;4.10;;;;;;;;;;104293;1292;545918;-72
2023/12/16 12:12:05;;;;;;;13.80;3.80;;;;;;;;;;103835;1291;545018;-71
2023/12/16 12:16:02;;;;;;;10.70;3.80;;;;;;;;;;103793;1292;548947;-72
2023/12/16 12:19:19;;;;;;;10.20;4.00;;;;;;;;;;103996;1288;545587;-77
2023/12/16 12:22:57;;;;;;;10.00;3.80;;;;;;;;;;103856;1291;545082;-71
2023/12/16 12:26:35;;;;;;;13.00;3.80;;;;;;;;;;103838;1295;545203;-71
2023/12/16 12:30:16;;;;;;;11.90;4.50;;;;;;;;;;103780;1291;545025;-73
2023/12/16 12:33:50;;;;;;;12.40;4.10;;;;;;;;;;103873;1289;545398;-72
2023/12/16 12:37:41;;;;;;;12.40;4.30;;;;;;;;;;103965;1289;544893;-72
2023/12/16 12:41:06;;;;;;;12.60;4.80;;;;;;;;;;104567;1282;544650;-70
2023/12/16 12:44:50;;;;;;;13.40;4.90;;;;;;;;;;104459;1293;545133;-71
2023/12/16 12:48:19;;;;;;;11.60;4.20;;;;;;;;;;103896;1291;544855;-71
2023/12/16 12:51:57;;;;;;;12.40;3.90;;;;;;;;;;103967;1289;544934;-84
2023/12/16 12:55:55;;;;;;;13.30;4.30;;;;;;;;;;103741;1292;548999;-78
2023/12/16 12:59:11;;;;;;;11.70;4.00;;;;;;;;;;103863;1289;545062;-72
2023/12/16 13:02:49;;;;;;;11.30;3.50;;;;;;;;;;103889;1290;546054;-70
2023/12/16 13:06:27;;;;;;;12.90;4.90;;;;;;;;;;104185;1291;545620;-72
2023/12/16 13:10:04;;;;;;;12.90;4.00;;;;;;;;;;103863;1292;545412;-78
2023/12/16 13:13:42;;;;;;;13.30;4.80;;;;;;;;;;103917;1292;545071;-71
2023/12/16 13:17:19;;;;;;;14.20;4.70;;;;;;;;;;103923;1295;545606;-72
2023/12/16 13:21:03;;;;;;;13.80;5.00;;;;;;;;;;104041;1291;546580;-70
2023/12/16 13:24:34;;;;;;;11.90;4.40;;;;;;;;;;103950;1289;546266;-74
2023/12/16 13:28:11;;;;;;;15.70;5.20;;;;;;;;;;103841;1293;546129;-75
2023/12/16 13:31:49;;;;;;;14.90;4.90;;;;;;;;;;104043;1289;544868;-72
2023/12/16 13:35:26;;;;;;;13.40;4.00;;;;;;;;;;103906;1289;545548;-78
2023/12/16 13:39:04;;;;;;;12.40;5.20;;;;;;;;;;103865;1288;545432;-78
2023/12/16 13:42:41;;;;;;;15.70;4.80;;;;;;;;;;103869;1289;545555;-75
2023/12/16 13:46:19;;;;;;;14.10;5.00;;;;;;;;;;103896;1289;544792;-72
2023/12/16 13:49:56;;;;;;;18.30;6.50;;;;;;;;;;103838;1292;544902;-74
2023/12/16 13:53:33;;;;;;;16.40;6.80;;;;;;;;;;104034;1289;544715;-72
2023/12/16 13:57:11;;;;;;;37.50;17.80;;;;;;;;;;103924;1293;545556;-71
2023/12/16 14:00:48;;;;;;;36.50;17.50;;;;;;;;;;103956;1289;544846;-70
2023/12/16 14:04:26;;;;;;;22.50;10.00;;;;;;;;;;103909;1289;544801;-77
2023/12/16 14:08:03;;;;;;;68.10;39.80;;;;;;;;;;103953;1295;544921;-73
2023/12/16 14:11:41;;;;;;;30.10;14.10;;;;;;;;;;103831;1291;545393;-71
2023/12/16 14:15:18;;;;;;;17.70;6.80;;;;;;;;;;103875;1289;545104;-72
2023/12/16 14:18:56;;;;;;;68.20;37.60;;;;;;;;;;104120;1286;545096;-70
2023/12/16 14:22:33;;;;;;;72.30;47.40;;;;;;;;;;103794;1293;545033;-73
2023/12/16 14:26:11;;;;;;;36.50;22.10;;;;;;;;;;103860;1289;546187;-71
2023/12/16 14:29:54;;;;;;;23.20;11.80;;;;;;;;;;103657;1291;544754;-71
2023/12/16 14:33:26;;;;;;;17.00;8.90;;;;;;;;;;103850;1289;545091;-71
2023/12/16 14:37:09;;;;;;;18.10;6.40;;;;;;;;;;103708;1295;544679;-70
2023/12/16 14:40:41;;;;;;;15.10;6.20;;;;;;;;;;103810;1292;545959;-71
2023/12/16 14:44:18;;;;;;;15.50;5.80;;;;;;;;;;103899;1289;545627;-71
2023/12/16 14:47:56;;;;;;;15.80;6.70;;;;;;;;;;103820;1303;545014;-72
2023/12/16 14:51:37;;;;;;;18.30;8.50;;;;;;;;;;103880;1295;545420;-76
2023/12/16 14:55:11;;;;;;;14.70;6.60;;;;;;;;;;103873;1289;544782;-78
2023/12/16 14:58:48;;;;;;;16.40;6.10;;;;;;;;;;104692;1285;545621;-76
2023/12/16 15:02:25;;;;;;;13.40;5.30;;;;;;;;;;103746;1292;545612;-70
2023/12/16 15:06:02;;;;;;;12.50;4.90;;;;;;;;;;103881;1289;544756;-78
2023/12/16 15:09:42;;;;;;;15.20;5.60;;;;;;;;;;103800;1289;545061;-71
2023/12/16 15:13:18;;;;;;;12.10;5.50;;;;;;;;;;103913;1289;545088;-70
2023/12/16 15:16:56;;;;;;;14.80;5.80;;;;;;;;;;103870;1295;544973;-71
2023/12/16 15:20:29;;;;;;;12.50;5.20;;;;;;;;;;104003;1289;544920;-75
2023/12/16 15:24:10;;;;;;;20.80;8.40;;;;;;;;;;103827;1295;545663;-77
2023/12/16 15:27:48;;;;;;;16.60;5.50;;;;;;;;;;103830;1305;546238;-70
2023/12/16 15:31:25;;;;;;;25.30;13.60;;;;;;;;;;103817;1291;544876;-78
2023/12/16 15:35:03;;;;;;;22.70;8.80;;;;;;;;;;103880;1289;544872;-74
2023/12/16 15:38:40;;;;;;;26.70;12.30;;;;;;;;;;103869;1291;544846;-74
2023/12/16 15:42:17;;;;;;;27.70;12.20;;;;;;;;;;104099;1288;544793;-74
2023/12/16 15:46:14;;;;;;;22.10;8.80;;;;;;;;;;104167;1288;545246;-74
2023/12/16 15:49:32;;;;;;;18.30;6.60;;;;;;;;;;103755;1288;545058;-73
2023/12/16 15:53:10;;;;;;;23.20;9.70;;;;;;;;;;103831;1289;545049;-77
2023/12/16 15:56:47;;;;;;;44.40;20.00;;;;;;;;;;103855;1292;545684;-72
2023/12/16 16:00:26;;;;;;;45.30;22.60;;;;;;;;;;103771;1291;545020;-71
2023/12/16 16:04:04;;;;;;;30.90;17.50;;;;;;;;;;103917;1289;545521;-73
2023/12/16 16:07:45;;;;;;;20.50;10.60;;;;;;;;;;103862;1295;545128;-73
2023/12/16 16:11:17;;;;;;;20.80;10.30;;;;;;;;;;103904;1289;544791;-70
2023/12/16 16:14:51;;;;;;;21.90;10.30;;;;;;;;;;103887;1290;545486;-71
2023/12/16 16:18:32;;;;;;;23.10;11.80;;;;;;;;;;103885;1290;545091;-71
2023/12/16 16:22:12;;;;;;;31.00;15.30;;;;;;;;;;103825;1292;545652;-75
2023/12/16 16:25:48;;;;;;;37.80;20.60;;;;;;;;;;104411;1284;545027;-71
2023/12/16 16:29:25;;;;;;;33.80;18.90;;;;;;;;;;103750;1291;545774;-71
2023/12/16 16:33:02;;;;;;;32.80;16.40;;;;;;;;;;103919;1291;545421;-75
2023/12/16 16:36:40;;;;;;;31.50;17.30;;;;;;;;;;103862;1294;544827;-72
2023/12/16 16:40:20;;;;;;;38.20;21.30;;;;;;;;;;104010;1295;545387;-72
2023/12/16 16:43:54;;;;;;;33.20;18.30;;;;;;;;;;103874;1289;545433;-72
2023/12/16 16:47:28;;;;;;;27.70;15.20;;;;;;;;;;104111;1292;545208;-72
2023/12/16 16:51:10;;;;;;;20.80;10.50;;;;;;;;;;103662;1294;547232;-72
2023/12/16 16:54:46;;;;;;;18.90;8.30;;;;;;;;;;103783;1294;544937;-73
2023/12/16 16:58:24;;;;;;;16.80;8.30;;;;;;;;;;103858;1291;545387;-71
2023/12/16 17:02:02;;;;;;;23.10;11.70;;;;;;;;;;104193;1292;545156;-70
2023/12/16 17:05:39;;;;;;;22.80;12.70;;;;;;;;;;104057;1295;545142;-76
2023/12/16 17:09:13;;;;;;;21.20;10.40;;;;;;;;;;104103;1290;545412;-71
2023/12/16 17:12:55;;;;;;;23.40;12.70;;;;;;;;;;103955;1289;544883;-77
2023/12/16 17:16:32;;;;;;;33.00;15.70;;;;;;;;;;104472;1289;544873;-79
2023/12/16 17:20:09;;;;;;;32.90;15.70;;;;;;;;;;103906;1295;545571;-72
2023/12/16 17:23:46;;;;;;;40.80;22.00;;;;;;;;;;103874;1289;545504;-73
2023/12/16 17:27:24;;;;;;;43.10;23.10;;;;;;;;;;103774;1295;546008;-72
2023/12/16 17:31:01;;;;;;;39.60;21.00;;;;;;;;;;103847;1292;545742;-73
2023/12/16 17:34:35;;;;;;;44.70;24.60;;;;;;;;;;103959;1292;544974;-71
2023/12/16 17:38:16;;;;;;;32.50;18.20;;;;;;;;;;103818;1290;545510;-74
2023/12/16 17:41:54;;;;;;;34.70;20.80;;;;;;;;;;103842;1291;545736;-77
2023/12/16 17:45:31;;;;;;;39.60;23.70;;;;;;;;;;103907;1291;545237;-74
2023/12/16 17:49:05;;;;;;;45.00;26.10;;;;;;;;;;103837;1292;545205;-73
2023/12/16 17:52:42;;;;;;;46.20;25.20;;;;;;;;;;103823;1292;545308;-70
2023/12/16 17:56:19;;;;;;;41.80;22.30;;;;;;;;;;104689;1286;544816;-72
2023/12/16 18:00:01;;;;;;;44.80;22.00;;;;;;;;;;104302;1286;544987;-71
2023/12/16 18:03:38;;;;;;;44.50;22.40;;;;;;;;;;103952;1290;545046;-71
2023/12/16 18:07:16;;;;;;;50.40;24.60;;;;;;;;;;103914;1288;545819;-72
2023/12/16 18:10:53;;;;;;;47.40;22.40;;;;;;;;;;104094;1289;545699;-72
2023/12/16 18:14:35;;;;;;;40.60;20.70;;;;;;;;;;103955;1289;545037;-71
2023/12/16 18:18:09;;;;;;;37.10;21.20;;;;;;;;;;104011;1292;546008;-71
2023/12/16 18:21:45;;;;;;;38.20;20.70;;;;;;;;;;104568;1283;545114;-74
2023/12/16 18:25:24;;;;;;;33.40;17.90;;;;;;;;;;103840;1292;544845;-75
2023/12/16 18:29:01;;;;;;;37.70;19.70;;;;;;;;;;103881;1289;545169;-73
2023/12/16 18:32:39;;;;;;;38.30;21.10;;;;;;;;;;104753;1283;545080;-77
2023/12/16 18:36:15;;;;;;;37.90;20.60;;;;;;;;;;103860;1290;544904;-75
2023/12/16 18:39:58;;;;;;;37.60;19.30;;;;;;;;;;103679;1292;545458;-74
2023/12/16 18:43:30;;;;;;;30.80;16.50;;;;;;;;;;103727;1292;545106;-75
2023/12/16 18:47:08;;;;;;;35.00;18.50;;;;;;;;;;104352;1285;545024;-71
2023/12/16 18:50:47;;;;;;;36.70;18.60;;;;;;;;;;103811;1291;544970;-72
2023/12/16 18:54:23;;;;;;;37.20;18.20;;;;;;;;;;103922;1291;545066;-74
2023/12/16 18:58:01;;;;;;;38.30;17.80;;;;;;;;;;104233;1288;545325;-76
2023/12/16 19:01:41;;;;;;;31.60;15.20;;;;;;;;;;103805;1290;545204;-71
2023/12/16 19:05:15;;;;;;;27.40;13.40;;;;;;;;;;103764;1295;545554;-72
2023/12/16 19:08:49;;;;;;;25.20;12.10;;;;;;;;;;104367;1287;545026;-76
2023/12/16 19:12:31;;;;;;;30.60;15.60;;;;;;;;;;104134;1289;544768;-78
2023/12/16 19:16:08;;;;;;;29.00;14.20;;;;;;;;;;103826;1291;544900;-73
2023/12/16 19:19:47;;;;;;;35.20;16.70;;;;;;;;;;103777;1292;545080;-71
2023/12/16 19:23:23;;;;;;;23.10;11.30;;;;;;;;;;103992;1289;546165;-70
2023/12/16 19:27:00;;;;;;;23.40;11.50;;;;;;;;;;103790;1291;545444;-73
2023/12/16 19:30:38;;;;;;;22.50;12.60;;;;;;;;;;104123;1288;545077;-71
2023/12/16 19:34:15;;;;;;;23.20;13.50;;;;;;;;;;103906;1294;544831;-72
2023/12/16 19:37:49;;;;;;;24.10;11.40;;;;;;;;;;103897;1292;545015;-70
2023/12/16 19:41:30;;;;;;;33.00;15.60;;;;;;;;;;103884;1289;545714;-76
2023/12/16 19:45:08;;;;;;;32.70;15.50;;;;;;;;;;104376;1285;545458;-73
2023/12/16 19:49:04;;;;;;;31.90;16.00;;;;;;;;;;103965;1292;547920;-73
2023/12/16 19:52:23;;;;;;;28.10;15.30;;;;;;;;;;103887;1291;545281;-74
2023/12/16 19:56:00;;;;;;;82.10;41.10;;;;;;;;;;103800;1291;545012;-71
2023/12/16 19:59:40;;;;;;;57.60;30.00;;;;;;;;;;104399;1289;545308;-72
2023/12/16 20:03:15;;;;;;;30.20;17.00;;;;;;;;;;103830;1291;545627;-72
2023/12/16 20:06:52;;;;;;;30.10;16.00;;;;;;;;;;103983;1291;544800;-77
2023/12/16 20:10:30;;;;;;;32.70;17.10;;;;;;;;;;103846;1292;544887;-73
2023/12/16 20:14:03;;;;;;;31.00;18.90;;;;;;;;;;104066;1303;546027;-73
2023/12/16 20:17:45;;;;;;;29.40;16.00;;;;;;;;;;103788;1294;544830;-70
2023/12/16 20:21:22;;;;;;;19.30;10.90;;;;;;;;;;104401;1289;545034;-71
2023/12/16 20:24:59;;;;;;;19.00;9.50;;;;;;;;;;104023;1292;545941;-72
2023/12/16 20:28:37;;;;;;;18.70;10.40;;;;;;;;;;103763;1290;545000;-77
2023/12/16 20:32:14;;;;;;;18.30;9.30;;;;;;;;;;103862;1292;544959;-73
2023/12/16 20:35:52;;;;;;;17.60;9.30;;;;;;;;;;103827;1291;545413;-76
2023/12/16 20:43:07;;;;;;;23.70;11.60;;;;;;;;;;103855;1291;546996;-77
2023/12/16 20:46:44;;;;;;;32.30;16.20;;;;;;;;;;104622;1286;544729;-72
2023/12/16 20:50:23;;;;;;;40.10;19.20;;;;;;;;;;104036;1289;545054;-70